Time;durP1;ratioP1;P1;durP2;ratioP2;P2;SDS_P1;SDS_P2;PMS_P1;PMS_P2;Temp;Humidity;BMP_temperature;BMP_pressure;BME280_temperature;BME280_humidity;BME280_pressure;Samples;Min_cycle;Max_cycle;Signal;HPM_P1;HPM_P2
2021/12/18 00:01:44;;;;;;;10.57;8.37;;;16.90;67.90;;;;;;5028582;28;43950;-75
2021/12/18 00:04:12;;;;;;;13.10;9.00;;;16.90;68.00;;;;;;5028788;28;43611;-75
2021/12/18 00:06:41;;;;;;;10.57;8.17;;;16.90;68.00;;;;;;5028430;28;45013;-75
2021/12/18 00:09:09;;;;;;;11.23;9.10;;;17.00;67.80;;;;;;5026906;28;45754;-76
2021/12/18 00:11:37;;;;;;;11.10;8.13;;;17.20;67.60;;;;;;5047443;28;43734;-76
2021/12/18 00:14:05;;;;;;;11.23;8.13;;;17.40;67.10;;;;;;5047894;28;43971;-76
2021/12/18 00:16:35;;;;;;;11.27;8.30;;;17.50;66.60;;;;;;5047332;28;44131;-75
2021/12/18 00:19:03;;;;;;;11.40;8.33;;;17.60;65.90;;;;;;5047357;28;43834;-76
2021/12/18 00:21:31;;;;;;;8.87;7.97;;;17.90;65.60;;;;;;5033796;28;44060;-75
2021/12/18 00:23:59;;;;;;;9.47;7.70;;;18.00;65.80;;;;;;5026999;28;44007;-76
2021/12/18 00:26:27;;;;;;;8.93;7.90;;;18.10;64.60;;;;;;5027484;28;44677;-76
2021/12/18 00:28:55;;;;;;;9.97;7.60;;;18.20;64.30;;;;;;5027494;28;43918;-76
2021/12/18 00:31:23;;;;;;;11.20;8.10;;;18.30;64.10;;;;;;5028318;28;43393;-74
2021/12/18 00:33:52;;;;;;;8.47;7.40;;;18.30;63.90;;;;;;5027132;28;43859;-75
2021/12/18 00:36:21;;;;;;;8.23;7.03;;;18.30;63.90;;;;;;5046008;28;46017;-75
2021/12/18 00:38:48;;;;;;;8.23;6.93;;;18.20;64.70;;;;;;5047151;28;43352;-75
2021/12/18 00:41:34;;;;;;;9.47;7.67;;;18.10;64.30;;;;;;5047390;28;43385;-75
2021/12/18 00:44:03;;;;;;;8.70;7.10;;;18.00;64.60;;;;;;5047507;28;43742;-75
2021/12/18 00:46:33;;;;;;;7.90;6.63;;;17.80;65.00;;;;;;5046850;28;44973;-75
2021/12/18 00:49:03;;;;;;;7.27;6.57;;;17.60;65.30;;;;;;5046711;28;43944;-75
2021/12/18 00:51:33;;;;;;;6.90;6.20;;;17.60;65.80;;;;;;5045695;28;44210;-75
2021/12/18 00:54:01;;;;;;;7.93;6.10;;;17.50;66.10;;;;;;5047110;28;43399;-76
2021/12/18 00:56:29;;;;;;;7.10;6.40;;;17.40;66.50;;;;;;5046853;28;43948;-76
2021/12/18 00:58:57;;;;;;;7.00;6.30;;;17.40;66.70;;;;;;5054297;28;44004;-76
2021/12/18 01:01:26;;;;;;;6.63;6.03;;;17.40;66.50;;;;;;5067392;28;44078;-75
2021/12/18 01:03:54;;;;;;;7.20;6.47;;;17.50;66.30;;;;;;5049696;28;44346;-76
2021/12/18 01:06:24;;;;;;;7.20;6.13;;;17.50;66.20;;;;;;5049063;28;45366;-75
2021/12/18 01:08:55;;;;;;;5.77;5.37;;;17.40;66.20;;;;;;5067259;28;43813;-75
2021/12/18 01:11:35;;;;;;;6.60;6.00;;;17.40;66.40;;;;;;5049280;28;44031;-75
2021/12/18 01:14:29;;;;;;;6.57;5.80;;;17.30;66.60;;;;;;5067694;28;43888;-75
2021/12/18 01:22:47;;;;;;;5.73;5.23;;;17.10;67.10;;;;;;5067420;28;43845;-75
2021/12/18 01:25:18;;;;;;;5.70;5.23;;;17.10;67.30;;;;;;5067676;28;43395;-75
2021/12/18 01:27:46;;;;;;;6.20;5.60;;;17.10;67.40;;;;;;5048632;28;46962;-75
2021/12/18 01:30:14;;;;;;;5.67;5.27;;;17.00;67.40;;;;;;5066859;28;43907;-75
2021/12/18 01:32:42;;;;;;;5.17;4.77;;;17.00;67.50;;;;;;5048585;28;43930;-74
2021/12/18 01:35:11;;;;;;;6.20;5.60;;;17.00;67.60;;;;;;5067365;28;44130;-74
2021/12/18 01:37:42;;;;;;;5.10;4.70;;;17.10;67.40;;;;;;5066689;28;43858;-75
2021/12/18 01:40:11;;;;;;;5.43;5.00;;;17.30;67.00;;;;;;5048367;28;46168;-74
2021/12/18 01:45:31;;;;;;;5.00;4.60;;;17.50;66.20;;;;;;5039298;28;43821;-76
2021/12/18 01:53:31;;;;;;;4.67;4.33;;;17.40;66.20;;;;;;5048353;28;43973;-74
2021/12/18 01:55:59;;;;;;;4.90;4.60;;;17.30;66.40;;;;;;5048947;28;44143;-75
2021/12/18 01:58:27;;;;;;;4.97;4.67;;;17.30;66.70;;;;;;5047428;28;44363;-75
2021/12/18 02:00:56;;;;;;;4.93;4.53;;;17.20;66.80;;;;;;5048387;28;45024;-76
2021/12/18 02:03:24;;;;;;;4.97;4.67;;;17.20;67.00;;;;;;5048251;28;43954;-76
2021/12/18 02:05:53;;;;;;;4.73;4.43;;;17.10;67.10;;;;;;5049005;28;44422;-77
2021/12/18 02:08:22;;;;;;;4.60;4.30;;;17.10;67.30;;;;;;5066907;28;43790;-76
2021/12/18 02:10:56;;;;;;;4.10;3.80;;;17.10;67.60;;;;;;5047831;28;44091;-76
2021/12/18 02:13:38;;;;;;;4.87;4.57;;;17.10;67.40;;;;;;5066713;28;43900;-75
2021/12/18 02:21:43;;;;;;;4.10;3.80;;;17.30;66.70;;;;;;5059580;28;44015;-75
2021/12/18 02:24:12;;;;;;;4.10;3.90;;;17.20;66.80;;;;;;5066220;28;43776;-74
2021/12/18 02:26:40;;;;;;;4.30;4.10;;;17.20;67.00;;;;;;5066901;28;44013;-77
2021/12/18 02:29:12;;;;;;;3.70;3.60;;;17.10;67.10;;;;;;5066120;28;43957;-75
2021/12/18 02:31:40;;;;;;;3.67;3.47;;;17.10;67.20;;;;;;5047973;28;43424;-75
2021/12/18 02:34:15;;;;;;;4.03;3.83;;;17.00;67.30;;;;;;5047953;28;43403;-75
2021/12/18 02:36:47;;;;;;;3.90;3.70;;;17.00;67.40;;;;;;5066580;28;43881;-75
2021/12/18 02:39:23;;;;;;;3.60;3.40;;;17.00;67.50;;;;;;5066100;28;43857;-75
2021/12/18 02:42:08;;;;;;;4.17;3.87;;;17.00;67.60;;;;;;5047511;28;44615;-76
2021/12/18 02:44:39;;;;;;;3.70;3.50;;;17.00;67.70;;;;;;5059602;28;44071;-74
2021/12/18 02:47:07;;;;;;;3.60;3.40;;;17.00;67.80;;;;;;5066706;28;43431;-75
2021/12/18 02:49:35;;;;;;;3.20;3.10;;;17.00;67.80;;;;;;5065828;28;44045;-75
2021/12/18 02:52:05;;;;;;;3.53;3.33;;;17.10;67.60;;;;;;5068979;28;43955;-75
2021/12/18 02:54:33;;;;;;;3.40;3.20;;;17.30;67.10;;;;;;5069281;28;44221;-75
2021/12/18 02:57:01;;;;;;;3.43;3.30;;;17.40;66.60;;;;;;5069654;28;44136;-75
2021/12/18 02:59:29;;;;;;;3.60;3.40;;;17.50;66.20;;;;;;5068884;28;43776;-75
2021/12/18 03:02:02;;;;;;;3.67;3.47;;;17.50;66.10;;;;;;5069202;28;43351;-76
2021/12/18 03:04:34;;;;;;;3.70;3.50;;;17.40;65.90;;;;;;5069430;28;44003;-75
2021/12/18 03:07:06;;;;;;;3.30;3.20;;;17.40;66.20;;;;;;5051269;28;43980;-76
2021/12/18 03:18:56;;;;;;;3.10;3.00;;;17.30;66.50;;;;;;5050483;28;45989;-75
2021/12/18 03:23:47;;;;;;;3.30;3.20;;;17.00;67.50;;;;;;5069023;28;44070;-75
2021/12/18 03:26:15;;;;;;;2.70;2.60;;;17.00;67.70;;;;;;5050924;28;44032;-76
2021/12/18 03:28:43;;;;;;;3.30;3.17;;;17.00;67.70;;;;;;5069288;28;43964;-76
2021/12/18 03:31:11;;;;;;;3.07;2.97;;;17.10;67.40;;;;;;5050466;28;45834;-76
2021/12/18 03:33:39;;;;;;;2.93;2.83;;;17.20;67.10;;;;;;5050301;28;43991;-76
2021/12/18 03:36:08;;;;;;;2.67;2.57;;;17.20;67.00;;;;;;5068847;28;43906;-76
2021/12/18 03:38:36;;;;;;;2.93;2.83;;;17.10;67.00;;;;;;5069189;28;43961;-76
2021/12/18 03:41:06;;;;;;;2.87;2.77;;;17.10;67.20;;;;;;5068519;28;44130;-76
2021/12/18 03:43:34;;;;;;;2.70;2.60;;;17.00;67.20;;;;;;5068461;28;43965;-76
2021/12/18 03:46:02;;;;;;;3.10;2.90;;;17.00;67.40;;;;;;5068723;28;44024;-76
2021/12/18 03:48:30;;;;;;;2.73;2.63;;;17.00;67.50;;;;;;5068987;28;43969;-76
2021/12/18 03:50:58;;;;;;;2.93;2.83;;;17.00;67.70;;;;;;5068382;28;43901;-75
2021/12/18 03:53:26;;;;;;;3.00;2.90;;;17.00;67.70;;;;;;5068327;28;43880;-76
2021/12/18 03:55:54;;;;;;;2.77;2.67;;;16.90;67.70;;;;;;5050366;28;43448;-75
2021/12/18 03:58:24;;;;;;;2.90;2.80;;;16.90;68.40;;;;;;5068518;28;44081;-75
2021/12/18 04:00:52;;;;;;;2.67;2.57;;;16.90;67.70;;;;;;5068598;28;43975;-75
2021/12/18 04:03:20;;;;;;;2.90;2.80;;;16.90;67.90;;;;;;5049986;28;44450;-76
2021/12/18 04:05:48;;;;;;;2.50;2.40;;;17.00;67.90;;;;;;5068370;28;44006;-75
2021/12/18 04:08:16;;;;;;;2.30;2.30;;;17.10;67.50;;;;;;5068622;28;43967;-76
2021/12/18 04:10:44;;;;;;;2.80;2.70;;;17.20;67.10;;;;;;5049620;28;45504;-75
2021/12/18 04:13:12;;;;;;;3.00;2.70;;;17.40;66.80;;;;;;5049825;28;44718;-75
2021/12/18 04:15:42;;;;;;;2.60;2.40;;;17.40;66.30;;;;;;5068258;28;43904;-75
2021/12/18 04:18:10;;;;;;;2.60;2.50;;;17.50;66.10;;;;;;5050098;28;43583;-75
2021/12/18 04:20:38;;;;;;;2.70;2.60;;;17.50;66.20;;;;;;5067922;28;43990;-75
2021/12/18 04:23:06;;;;;;;2.20;2.20;;;17.40;66.30;;;;;;5067962;28;43982;-75
2021/12/18 04:25:34;;;;;;;2.50;2.40;;;17.30;66.50;;;;;;5067945;28;43993;-75
2021/12/18 04:28:02;;;;;;;2.60;2.50;;;17.20;66.70;;;;;;5068610;28;43801;-75
2021/12/18 04:30:30;;;;;;;2.43;2.33;;;17.20;67.00;;;;;;5067854;28;43909;-75
2021/12/18 04:32:59;;;;;;;2.37;2.27;;;17.10;67.10;;;;;;5067844;28;43446;-76
2021/12/18 04:35:27;;;;;;;2.60;2.50;;;17.10;67.30;;;;;;5067746;28;43882;-75
2021/12/18 04:37:55;;;;;;;2.37;2.27;;;17.00;67.30;;;;;;5068221;28;43948;-75
2021/12/18 04:40:26;;;;;;;2.43;2.33;;;17.00;67.40;;;;;;5067774;28;44099;-75
2021/12/18 04:42:54;;;;;;;2.60;2.50;;;17.00;67.70;;;;;;5049692;28;43982;-75
2021/12/18 04:45:22;;;;;;;2.37;2.33;;;17.10;67.60;;;;;;5067984;28;43838;-75
2021/12/18 04:47:50;;;;;;;2.40;2.30;;;17.20;67.10;;;;;;5050015;28;44217;-76
2021/12/18 04:50:20;;;;;;;2.03;2.00;;;17.20;66.90;;;;;;5067501;28;43990;-75
2021/12/18 04:52:48;;;;;;;2.00;2.00;;;17.20;66.90;;;;;;5049087;28;44504;-75
2021/12/18 04:55:16;;;;;;;2.20;2.10;;;17.20;67.00;;;;;;5049404;28;43940;-75
2021/12/18 04:57:44;;;;;;;2.13;2.13;;;17.10;67.10;;;;;;5067732;28;43595;-75
2021/12/18 05:00:14;;;;;;;2.40;2.30;;;17.10;67.30;;;;;;5067245;28;43919;-75
2021/12/18 05:02:44;;;;;;;2.33;2.30;;;17.00;67.40;;;;;;5061257;28;43439;-75
2021/12/18 05:05:13;;;;;;;2.10;2.10;;;17.00;67.50;;;;;;5061116;28;43978;-75
2021/12/18 05:07:43;;;;;;;2.10;2.10;;;17.00;67.60;;;;;;5061606;28;43869;-75
2021/12/18 05:10:11;;;;;;;2.20;2.10;;;16.90;67.60;;;;;;5048833;28;45478;-75
2021/12/18 05:12:39;;;;;;;2.43;2.33;;;16.90;67.70;;;;;;5066631;28;44075;-75
2021/12/18 05:15:08;;;;;;;1.90;1.90;;;16.90;67.70;;;;;;5066974;28;43874;-75
2021/12/18 05:17:36;;;;;;;2.10;2.10;;;16.90;67.70;;;;;;5067501;28;44217;-75
2021/12/18 05:20:05;;;;;;;2.00;2.00;;;16.90;68.00;;;;;;5066921;28;43944;-75
2021/12/18 05:22:33;;;;;;;2.10;2.00;;;17.00;67.80;;;;;;5067036;28;43912;-76
2021/12/18 05:25:02;;;;;;;1.90;1.87;;;17.10;67.40;;;;;;5048598;28;43408;-75
2021/12/18 05:27:30;;;;;;;2.13;2.03;;;17.30;67.00;;;;;;5067376;28;44249;-76
2021/12/18 05:29:58;;;;;;;1.83;1.73;;;17.40;66.40;;;;;;5066846;28;43929;-76
2021/12/18 05:32:26;;;;;;;1.90;1.90;;;17.40;66.20;;;;;;5066890;28;43968;-76
2021/12/18 05:34:54;;;;;;;1.90;1.90;;;17.40;66.10;;;;;;5048781;28;44073;-76
2021/12/18 05:37:42;;;;;;;1.80;1.80;;;17.40;66.40;;;;;;5067608;28;43494;-75
2021/12/18 05:40:15;;;;;;;1.93;1.93;;;17.30;66.70;;;;;;5066922;28;43944;-75
2021/12/18 05:42:47;;;;;;;1.90;1.90;;;17.20;66.80;;;;;;5048480;28;44372;-75
2021/12/18 05:45:15;;;;;;;1.90;1.90;;;17.10;67.00;;;;;;5066731;28;44015;-75
2021/12/18 05:47:44;;;;;;;2.13;2.03;;;17.00;67.10;;;;;;5067179;28;43980;-75
2021/12/18 05:50:12;;;;;;;2.10;2.10;;;17.00;67.40;;;;;;5066628;28;43975;-75
2021/12/18 05:52:40;;;;;;;1.77;1.77;;;17.00;67.50;;;;;;5066447;28;43962;-75
2021/12/18 05:55:09;;;;;;;1.97;1.97;;;17.00;67.60;;;;;;5066650;28;44034;-75
2021/12/18 05:57:38;;;;;;;2.30;2.20;;;16.90;67.80;;;;;;5066946;28;44036;-75
2021/12/18 06:00:07;;;;;;;2.00;2.00;;;17.00;67.90;;;;;;5048146;28;45645;-76
2021/12/18 06:02:35;;;;;;;1.97;1.90;;;17.10;67.50;;;;;;5048296;28;44658;-76
2021/12/18 06:05:04;;;;;;;2.20;2.20;;;17.10;67.10;;;;;;5066538;28;43943;-76
2021/12/18 06:07:39;;;;;;;1.60;1.60;;;17.20;67.00;;;;;;5048532;28;44249;-75
2021/12/18 06:10:07;;;;;;;1.80;1.80;;;17.10;67.00;;;;;;5060048;28;43920;-76
2021/12/18 06:12:35;;;;;;;1.80;1.80;;;17.10;67.20;;;;;;5059986;28;43914;-75
2021/12/18 06:15:06;;;;;;;1.80;1.80;;;17.00;67.20;;;;;;5048161;28;44047;-76
2021/12/18 06:17:34;;;;;;;1.80;1.80;;;17.00;67.30;;;;;;5060527;28;43449;-76
2021/12/18 06:20:02;;;;;;;1.90;1.90;;;17.00;67.50;;;;;;5066290;28;44027;-76
2021/12/18 06:22:30;;;;;;;1.87;1.87;;;17.00;67.60;;;;;;5047876;28;44396;-76
2021/12/18 06:24:58;;;;;;;1.77;1.70;;;16.90;67.60;;;;;;5066309;28;44029;-76
2021/12/18 06:27:26;;;;;;;1.80;1.80;;;16.90;67.70;;;;;;5070272;28;43940;-76
2021/12/18 06:29:54;;;;;;;2.17;2.00;;;16.90;67.70;;;;;;5069997;28;45409;-76
2021/12/18 06:32:23;;;;;;;1.50;1.50;;;16.90;67.70;;;;;;5069913;28;43873;-76
2021/12/18 06:34:51;;;;;;;2.07;2.07;;;16.90;67.80;;;;;;5069929;28;43819;-76
2021/12/18 06:37:19;;;;;;;1.77;1.77;;;16.90;68.00;;;;;;5070520;28;43957;-75
2021/12/18 06:39:47;;;;;;;1.80;1.80;;;17.00;67.80;;;;;;5052188;28;45430;-77
2021/12/18 06:42:35;;;;;;;1.93;1.93;;;17.10;67.50;;;;;;5051937;28;44201;-76
2021/12/18 06:45:04;;;;;;;1.90;1.90;;;17.30;66.90;;;;;;5051268;28;43960;-76
2021/12/18 06:47:33;;;;;;;1.80;1.80;;;17.40;66.50;;;;;;5070060;28;43562;-75
2021/12/18 06:50:01;;;;;;;1.70;1.70;;;17.40;66.20;;;;;;5068893;28;44011;-76
2021/12/18 06:52:29;;;;;;;1.90;1.90;;;17.40;66.20;;;;;;5069288;28;43994;-75
2021/12/18 06:54:57;;;;;;;1.73;1.73;;;17.30;66.30;;;;;;5069219;28;44066;-75
2021/12/18 06:57:25;;;;;;;1.90;1.90;;;17.30;66.60;;;;;;5069314;28;43924;-75
2021/12/18 06:59:53;;;;;;;1.37;1.37;;;17.20;66.80;;;;;;5050618;28;46821;-75
2021/12/18 07:02:21;;;;;;;1.50;1.50;;;17.10;67.00;;;;;;5069438;28;43887;-75
2021/12/18 07:04:51;;;;;;;1.63;1.63;;;17.10;67.20;;;;;;5050992;28;43851;-75
2021/12/18 07:07:19;;;;;;;1.57;1.57;;;17.00;68.00;;;;;;5069692;28;43952;-74
2021/12/18 07:09:47;;;;;;;1.87;1.87;;;17.00;67.50;;;;;;5068909;28;44038;-75
2021/12/18 07:12:15;;;;;;;1.53;1.53;;;17.00;67.60;;;;;;5069061;28;43937;-74
2021/12/18 07:14:42;;;;;;;1.70;1.70;;;16.90;67.70;;;;;;5069182;28;43830;-74
2021/12/18 07:17:10;;;;;;;1.70;1.70;;;16.90;67.70;;;;;;5051347;28;43976;-75
2021/12/18 07:19:38;;;;;;;1.70;1.70;;;17.00;67.40;;;;;;5068991;28;44041;-75
2021/12/18 07:22:08;;;;;;;1.60;1.60;;;17.10;67.10;;;;;;5068768;28;43282;-75
2021/12/18 07:24:36;;;;;;;1.80;1.80;;;17.10;66.90;;;;;;5068831;28;44035;-74
2021/12/18 07:27:04;;;;;;;1.60;1.60;;;17.10;66.90;;;;;;5069284;28;43908;-75
2021/12/18 07:29:32;;;;;;;1.80;1.80;;;17.10;67.00;;;;;;5068592;28;44028;-75
2021/12/18 07:32:00;;;;;;;1.63;1.63;;;17.00;67.10;;;;;;5068546;28;43981;-75
2021/12/18 07:34:48;;;;;;;1.90;1.80;;;17.00;67.30;;;;;;5069055;28;44005;-74
2021/12/18 07:37:17;;;;;;;1.60;1.60;;;17.00;67.40;;;;;;5062219;28;43966;-77
2021/12/18 07:39:45;;;;;;;1.60;1.60;;;16.90;67.50;;;;;;5068387;28;44927;-74
2021/12/18 07:42:13;;;;;;;1.60;1.60;;;16.90;67.60;;;;;;5062277;28;43990;-75
2021/12/18 07:44:42;;;;;;;1.50;1.50;;;16.90;67.70;;;;;;5062363;28;44060;-74
2021/12/18 07:47:10;;;;;;;1.73;1.73;;;16.90;67.70;;;;;;5062558;28;43900;-74
2021/12/18 07:49:39;;;;;;;1.70;1.70;;;16.90;67.80;;;;;;5068466;28;44011;-74
2021/12/18 07:52:07;;;;;;;1.70;1.70;;;16.90;67.90;;;;;;5049990;28;44282;-74
2021/12/18 07:54:36;;;;;;;1.70;1.70;;;16.90;68.00;;;;;;5050226;28;43892;-75
2021/12/18 07:57:04;;;;;;;1.67;1.67;;;17.00;67.80;;;;;;5050513;28;43885;-75
2021/12/18 07:59:32;;;;;;;1.67;1.67;;;17.10;67.30;;;;;;5067866;28;44642;-74
2021/12/18 08:02:01;;;;;;;1.57;1.57;;;17.20;66.80;;;;;;5068581;28;43804;-77
2021/12/18 08:04:29;;;;;;;1.80;1.80;;;17.40;66.50;;;;;;5068269;28;44032;-74
2021/12/18 08:07:00;;;;;;;1.70;1.70;;;17.40;66.20;;;;;;5068755;28;43957;-75
2021/12/18 08:09:28;;;;;;;1.60;1.60;;;17.40;66.20;;;;;;5049837;28;46141;-74
2021/12/18 08:11:57;;;;;;;1.50;1.50;;;17.30;66.40;;;;;;5068075;28;43960;-75
2021/12/18 08:14:25;;;;;;;1.60;1.60;;;17.20;66.60;;;;;;5067996;28;43944;-75
2021/12/18 08:16:53;;;;;;;1.80;1.80;;;17.10;66.80;;;;;;5068512;28;44107;-75
2021/12/18 08:19:21;;;;;;;1.50;1.50;;;17.10;67.00;;;;;;5049961;28;45862;-79
2021/12/18 08:21:49;;;;;;;1.40;1.40;;;17.00;67.10;;;;;;5068574;28;43366;-76
2021/12/18 08:24:17;;;;;;;1.80;1.80;;;17.00;67.40;;;;;;5049577;28;43920;-76
2021/12/18 08:26:45;;;;;;;1.70;1.70;;;17.00;67.50;;;;;;5050201;28;43964;-76
2021/12/18 08:29:15;;;;;;;2.27;2.07;;;17.00;67.50;;;;;;5067775;28;44020;-77
2021/12/18 08:31:43;;;;;;;3.00;2.70;;;16.90;67.60;;;;;;5067684;28;44092;-76
2021/12/18 08:34:11;;;;;;;3.33;2.83;;;17.00;67.70;;;;;;5067993;28;44004;-76
2021/12/18 08:36:39;;;;;;;3.07;2.53;;;17.00;67.40;;;;;;5068112;28;43887;-75
2021/12/18 08:39:07;;;;;;;4.60;3.13;;;17.10;67.00;;;;;;5049239;28;45548;-76
2021/12/18 08:41:37;;;;;;;5.50;2.87;;;17.10;66.80;;;;;;5049256;28;45125;-75
2021/12/18 08:44:07;;;;;;;3.23;2.93;;;17.10;66.90;;;;;;5067685;28;43952;-76
2021/12/18 08:46:36;;;;;;;4.67;3.30;;;17.10;67.10;;;;;;5049672;28;43885;-76
2021/12/18 08:49:04;;;;;;;3.73;3.30;;;17.00;67.10;;;;;;5048360;28;45763;-76
2021/12/18 08:51:32;;;;;;;4.80;3.70;;;17.00;67.40;;;;;;5049286;28;45898;-75
2021/12/18 08:54:01;;;;;;;4.30;3.90;;;17.00;68.20;;;;;;5049353;28;44061;-75
2021/12/18 08:56:29;;;;;;;4.33;3.47;;;16.90;67.50;;;;;;5049526;28;43898;-76
2021/12/18 08:58:58;;;;;;;4.17;3.77;;;16.90;67.60;;;;;;5067095;28;43930;-76
2021/12/18 09:01:26;;;;;;;4.67;3.70;;;16.90;67.70;;;;;;5049395;28;44322;-76
2021/12/18 09:03:56;;;;;;;4.23;3.90;;;16.90;67.90;;;;;;5067801;28;43846;-76
2021/12/18 09:06:24;;;;;;;3.87;3.47;;;16.90;67.90;;;;;;5049284;28;44116;-76
2021/12/18 09:08:52;;;;;;;4.23;3.83;;;16.90;67.90;;;;;;5067416;28;44366;-76
2021/12/18 09:11:20;;;;;;;6.20;4.53;;;16.90;68.10;;;;;;5067521;28;44010;-76
2021/12/18 09:13:48;;;;;;;4.93;3.83;;;16.90;67.90;;;;;;5049027;28;43990;-76
2021/12/18 09:16:18;;;;;;;5.43;3.90;;;17.10;67.50;;;;;;5049252;28;43952;-77
2021/12/18 09:18:46;;;;;;;5.23;3.50;;;17.20;67.10;;;;;;5067081;28;44395;-76
2021/12/18 09:21:16;;;;;;;4.83;4.17;;;17.30;66.60;;;;;;5048790;28;45616;-74
2021/12/18 09:23:44;;;;;;;6.27;3.97;;;17.40;66.30;;;;;;5067619;28;44239;-75
2021/12/18 09:26:12;;;;;;;4.97;4.10;;;17.30;66.20;;;;;;5049165;28;44015;-76
2021/12/18 09:28:40;;;;;;;5.27;3.70;;;17.30;66.50;;;;;;5066927;28;43976;-75
2021/12/18 09:31:08;;;;;;;5.43;4.30;;;17.20;66.70;;;;;;5048495;28;44659;-75
2021/12/18 09:33:36;;;;;;;6.70;4.13;;;17.10;66.90;;;;;;5067001;28;43788;-75
2021/12/18 09:36:04;;;;;;;4.63;4.20;;;17.10;67.10;;;;;;5067125;28;43979;-76
2021/12/18 09:38:34;;;;;;;6.23;4.60;;;17.00;67.20;;;;;;5066954;28;44048;-75
2021/12/18 09:41:02;;;;;;;4.70;4.20;;;17.00;67.40;;;;;;5048407;28;45485;-75
2021/12/18 09:43:30;;;;;;;4.97;4.43;;;16.90;67.40;;;;;;5048410;28;43414;-77
2021/12/18 09:46:02;;;;;;;5.07;4.23;;;16.90;67.50;;;;;;5067140;28;43976;-76
2021/12/18 09:48:30;;;;;;;7.33;4.70;;;16.90;67.70;;;;;;5048202;28;45356;-77
2021/12/18 09:50:59;;;;;;;6.43;4.30;;;16.90;67.90;;;;;;5066432;28;43916;-76
2021/12/18 09:53:27;;;;;;;8.53;4.63;;;17.00;67.80;;;;;;5066641;28;43411;-77
2021/12/18 09:55:56;;;;;;;8.10;4.30;;;17.10;67.30;;;;;;5066821;28;43521;-77
2021/12/18 09:58:24;;;;;;;5.67;4.13;;;17.20;66.90;;;;;;5065667;28;45055;-77
2021/12/18 10:00:53;;;;;;;5.20;4.23;;;17.20;66.60;;;;;;5048231;28;44692;-75
2021/12/18 10:03:21;;;;;;;6.10;4.47;;;17.20;66.50;;;;;;5048471;28;44034;-75
2021/12/18 10:05:50;;;;;;;4.83;4.30;;;17.10;66.70;;;;;;5048710;28;44226;-76
2021/12/18 10:08:21;;;;;;;6.30;4.43;;;17.10;66.90;;;;;;5048348;28;44801;-76
2021/12/18 10:11:01;;;;;;;6.40;4.40;;;17.00;67.10;;;;;;5048125;28;44241;-76
2021/12/18 10:13:29;;;;;;;6.00;4.33;;;17.00;67.30;;;;;;5048003;28;44022;-76
2021/12/18 10:16:07;;;;;;;5.30;4.50;;;17.00;67.40;;;;;;5066482;28;43886;-75
2021/12/18 10:18:36;;;;;;;5.83;4.80;;;16.90;68.30;;;;;;5066248;28;44780;-75
2021/12/18 10:21:09;;;;;;;5.23;4.50;;;16.90;67.60;;;;;;5047949;28;44673;-75
2021/12/18 10:23:37;;;;;;;5.57;4.60;;;16.90;67.70;;;;;;5066258;28;43832;-76
2021/12/18 10:26:06;;;;;;;5.17;4.40;;;16.90;67.80;;;;;;5048590;28;43620;-75
2021/12/18 10:28:44;;;;;;;4.73;4.23;;;16.90;68.00;;;;;;5047842;28;45765;-76
2021/12/18 10:31:12;;;;;;;6.77;5.07;;;16.90;67.90;;;;;;5047781;28;44759;-76
2021/12/18 10:33:40;;;;;;;6.40;4.63;;;17.00;67.50;;;;;;5066200;28;43896;-76
2021/12/18 10:36:13;;;;;;;6.10;4.50;;;17.20;67.20;;;;;;5066614;28;43568;-76
2021/12/18 10:38:45;;;;;;;6.87;4.97;;;17.20;66.70;;;;;;5066246;28;43957;-77
2021/12/18 10:41:26;;;;;;;6.40;5.00;;;17.20;66.50;;;;;;5066256;28;43711;-75
2021/12/18 10:43:59;;;;;;;5.30;4.83;;;17.20;66.70;;;;;;5042392;28;43925;-75
2021/12/18 10:46:28;;;;;;;5.33;4.80;;;17.20;66.90;;;;;;5066568;28;44019;-75
2021/12/18 10:48:57;;;;;;;5.93;4.67;;;17.10;67.00;;;;;;5047716;28;46385;-74
2021/12/18 10:51:27;;;;;;;4.97;4.57;;;17.00;67.10;;;;;;5065830;28;43542;-75
2021/12/18 10:54:00;;;;;;;5.37;4.80;;;17.00;67.40;;;;;;5047592;28;43842;-77
2021/12/18 10:56:37;;;;;;;5.20;4.70;;;17.00;67.50;;;;;;5048399;28;44074;-77
2021/12/18 10:59:06;;;;;;;5.63;4.63;;;16.90;67.50;;;;;;5065494;28;43956;-76
2021/12/18 11:01:36;;;;;;;6.80;4.60;;;16.90;67.70;;;;;;5047616;28;44728;-76
2021/12/18 11:04:05;;;;;;;6.17;4.43;;;16.90;67.70;;;;;;5048249;28;43974;-78
2021/12/18 11:06:35;;;;;;;4.97;4.50;;;16.90;68.00;;;;;;5066791;28;43933;-77
2021/12/18 11:09:06;;;;;;;4.97;4.27;;;16.90;67.90;;;;;;5047213;28;45916;-75
2021/12/18 11:14:36;;;;;;;5.83;4.50;;;17.00;67.10;;;;;;5069287;28;43468;-77
2021/12/18 11:17:05;;;;;;;4.67;4.27;;;17.00;67.00;;;;;;5051348;28;43576;-76
2021/12/18 11:19:34;;;;;;;5.07;4.57;;;17.00;67.20;;;;;;5068986;28;43772;-76
2021/12/18 11:22:03;;;;;;;6.40;4.73;;;17.00;67.40;;;;;;5068853;28;43313;-75
2021/12/18 11:24:33;;;;;;;6.87;4.90;;;16.90;67.40;;;;;;5068935;28;44128;-76
2021/12/18 11:27:04;;;;;;;5.60;4.60;;;16.90;67.60;;;;;;5051024;28;43924;-76
2021/12/18 11:29:35;;;;;;;5.23;4.80;;;16.90;67.80;;;;;;5069106;28;44135;-76
2021/12/18 11:32:03;;;;;;;6.23;4.57;;;16.80;67.80;;;;;;5050354;28;44419;-76
2021/12/18 11:34:31;;;;;;;5.37;4.67;;;16.80;68.60;;;;;;5068981;28;43410;-77
2021/12/18 11:37:00;;;;;;;5.47;4.73;;;16.80;67.90;;;;;;5069445;28;44257;-78
2021/12/18 11:39:31;;;;;;;4.60;4.20;;;16.80;68.00;;;;;;5068786;28;43928;-77
2021/12/18 11:41:59;;;;;;;5.30;4.90;;;16.80;68.10;;;;;;5050251;28;44450;-77
2021/12/18 11:44:30;;;;;;;4.93;4.43;;;16.80;68.10;;;;;;5050380;28;44102;-77
2021/12/18 11:46:58;;;;;;;5.07;4.57;;;16.80;68.20;;;;;;5069110;28;43511;-77
2021/12/18 11:49:42;;;;;;;5.00;4.50;;;16.90;67.90;;;;;;5050096;28;45317;-76
2021/12/18 11:52:10;;;;;;;5.10;4.70;;;17.10;67.40;;;;;;5068263;28;43949;-76
2021/12/18 11:54:48;;;;;;;5.30;4.80;;;17.20;66.80;;;;;;5050054;28;43996;-77
2021/12/18 11:57:36;;;;;;;5.23;4.70;;;17.30;66.40;;;;;;5069096;28;43955;-77
2021/12/18 12:00:07;;;;;;;5.40;4.47;;;17.30;66.20;;;;;;5031460;28;45645;-76
2021/12/18 12:02:49;;;;;;;4.63;4.20;;;17.30;66.40;;;;;;5045153;28;43644;-78
2021/12/18 12:05:17;;;;;;;5.70;5.17;;;17.20;66.70;;;;;;5048423;28;43993;-76
2021/12/18 12:07:46;;;;;;;5.87;4.80;;;17.10;66.90;;;;;;5047143;28;44036;-76
2021/12/18 12:10:22;;;;;;;6.17;4.70;;;17.00;67.00;;;;;;5047819;28;44023;-76
2021/12/18 12:12:52;;;;;;;5.00;4.57;;;17.00;67.30;;;;;;5048282;28;44009;-76
2021/12/18 12:15:22;;;;;;;4.83;4.33;;;17.00;67.50;;;;;;5048185;28;44082;-76
2021/12/18 12:17:54;;;;;;;4.63;4.33;;;16.90;67.60;;;;;;5048727;28;44164;-76
2021/12/18 12:20:33;;;;;;;4.57;4.17;;;16.90;67.70;;;;;;5046711;28;45963;-76
2021/12/18 12:23:02;;;;;;;5.43;4.60;;;16.90;67.80;;;;;;5047649;28;44003;-76
2021/12/18 12:25:48;;;;;;;4.63;4.27;;;16.90;68.00;;;;;;5046364;28;44078;-76
2021/12/18 12:28:19;;;;;;;4.70;4.23;;;17.00;67.70;;;;;;5041171;28;44290;-76
2021/12/18 12:30:51;;;;;;;4.50;4.20;;;17.10;67.30;;;;;;5045826;28;45809;-76
2021/12/18 12:33:26;;;;;;;4.40;4.00;;;17.00;67.00;;;;;;5046468;28;44446;-75
2021/12/18 12:36:04;;;;;;;4.47;4.17;;;17.00;67.10;;;;;;5046539;28;44033;-75
2021/12/18 12:38:33;;;;;;;4.23;3.97;;;17.00;67.30;;;;;;5048319;28;43913;-76
2021/12/18 12:41:25;;;;;;;4.67;4.30;;;17.00;67.50;;;;;;5047335;28;44412;-76
2021/12/18 12:43:54;;;;;;;5.00;4.43;;;16.90;67.60;;;;;;5048067;28;43963;-76
2021/12/18 12:46:25;;;;;;;4.57;4.27;;;16.90;67.70;;;;;;5046376;28;43427;-77
2021/12/18 12:49:01;;;;;;;4.30;4.10;;;16.90;67.90;;;;;;5046647;28;43967;-76
2021/12/18 12:52:00;;;;;;;4.17;3.87;;;16.80;67.90;;;;;;5045682;28;44932;-76
2021/12/18 12:54:58;;;;;;;3.70;3.50;;;16.80;67.90;;;;;;5056132;28;44553;-75
2021/12/18 12:57:49;;;;;;;4.00;3.70;;;16.80;68.00;;;;;;5045594;28;44891;-75
2021/12/18 13:00:40;;;;;;;3.90;3.70;;;16.80;68.10;;;;;;5066764;28;43980;-76
2021/12/18 13:03:15;;;;;;;4.30;3.90;;;16.80;68.20;;;;;;5048992;28;46569;-76
2021/12/18 13:05:49;;;;;;;4.23;3.87;;;16.90;68.00;;;;;;5049438;28;43873;-77
2021/12/18 13:08:17;;;;;;;4.10;3.80;;;17.00;67.60;;;;;;5049220;28;44016;-75
2021/12/18 13:10:47;;;;;;;3.90;3.70;;;17.20;67.10;;;;;;5049475;28;43582;-76
2021/12/18 13:13:17;;;;;;;3.70;3.50;;;17.30;66.70;;;;;;5049311;28;46515;-76
2021/12/18 13:15:50;;;;;;;5.53;3.43;;;17.30;66.40;;;;;;5049835;28;44680;-77
2021/12/18 13:18:20;;;;;;;7.60;3.67;;;17.30;66.40;;;;;;5067226;28;43948;-78
2021/12/18 13:20:51;;;;;;;4.00;3.73;;;17.20;66.70;;;;;;5044137;28;44063;-75
2021/12/18 13:23:19;;;;;;;5.10;3.80;;;17.10;66.80;;;;;;5048930;28;45718;-75
2021/12/18 13:25:48;;;;;;;3.90;3.53;;;17.10;67.10;;;;;;5067119;28;44002;-76
2021/12/18 13:28:16;;;;;;;4.27;3.77;;;17.00;67.30;;;;;;5067171;28;43351;-75
2021/12/18 13:30:47;;;;;;;4.13;3.80;;;17.00;67.50;;;;;;5048961;28;43946;-76
2021/12/18 13:33:15;;;;;;;5.33;3.60;;;16.90;67.50;;;;;;5048729;28;46728;-76
2021/12/18 13:35:45;;;;;;;3.93;3.73;;;16.90;67.70;;;;;;5047728;28;44466;-75